hwlogo.jpg (8581 bytes)
Home Your Weather Products Services Weather On Your Site Contact
HW Version Logo
Weather Info
Your Weather (Options)
Canadian Weather
International Weather
Enter your " Place, State", US Zip Code or ICAO:  
Forecast Information Radar Information
Fort Nelson, British Columbia, Canada  Lat: 58.82N, Lon: 122.58W
ICAO Used: CYYE
Current Conditions
Updated: 10:00 AM PST THU FEB 22 2018
Sun & Moon Information
Mostly Cloudy
Mostly Cloudy
Temp: -10°C
Humidity: 66%
Wind Speed: S 6 MPH
Barometer: 1018 mb
Dewpoint: -15°C
Heat Index: -10°C
Wind Chill: -15°C
Civil Twilight: 6:48 AM PST Moon Phase:
Waxing Gibbous Moon
Sunrise: 7:29 AM PST
Sunset: 5:18 PM PST
Civil Twilight: 5:59 PM PST
Forecast for Fort Nelson, BC:
(Forecast based on TAF for )
1142 AM PST THU FEB 22 2018
  
MORNING AFTERNOON EVENING
Mostly
Cloudy
Mostly
Cloudy
Mostly
Cloudy
ZoneCast:
Dated: 1142 AM PST THU FEB 22 2018
Morning...Mostly cloudy with winds from the south at 6 mph.

Afternoon...Mostly cloudy with winds from the south at 6 mph.

Evening...Mostly cloudy with winds from the south at 6 mph.

Original Encoded TAF:
Dated: 1142 AM PST THU FEB 22 2018
2018/02/22 19:42
TAF CYYE 221838Z 2219/2307 18005KT P6SM FEW080 BKN250 
     FM230400 VRB03KT P6SM SCT060 OVC100 
      TEMPO 2304/2306 OVC060 
      RMK NXT FCST BY 230100Z